CST,Max TemperatureF,Mean TemperatureF,Min TemperatureF,Max Dew PointF,MeanDew PointF,Min DewpointF,Max Humidity, Mean Humidity, Min Humidity, Max Sea Level PressureIn, Mean Sea Level PressureIn, Min Sea Level PressureIn, Max VisibilityMiles, Mean VisibilityMiles, Min VisibilityMiles, Max Wind SpeedMPH, Mean Wind SpeedMPH, Max Gust SpeedMPH,PrecipitationIn, CloudCover, Events, WindDirDegrees
2013-2-1,22,14,5,18,3,-3,76,61,45,30.49,30.37,30.23,10,9,1,23,12,32,T,4,Snow,255
2013-2-2,31,24,17,23,17,10,88,76,63,30.21,30.13,30.05,10,7,1,20,11,25,0.01,8,Snow,253
2013-2-3,31,25,19,21,17,12,92,70,47,30.15,30.07,29.99,10,8,3,23,8,32,T,6,Snow,256
2013-2-4,47,36,24,29,24,17,78,64,49,30.03,29.90,29.81,10,10,9,20,12,24,0.00,4,,316
2013-2-5,45,34,23,32,26,21,92,75,58,30.11,29.96,29.86,10,7,4,20,9,74,0.00,4,,260
2013-2-6,45,35,24,31,27,22,92,71,49,30.25,30.18,30.11,10,9,5,15,6,24,0.00,1,,174
2013-2-7,49,40,31,43,35,28,96,76,56,30.11,29.96,29.85,10,5,2,22,9,32,0.34,7,Rain,202
2013-2-8,36,32,28,32,26,22,89,79,69,30.41,30.25,30.01,10,10,8,25,12,31,0.00,8,,345
2013-2-9,40,35,30,29,26,23,75,70,64,30.40,30.28,30.09,10,10,10,20,11,25,0.00,5,,145
2013-2-10,52,45,37,49,41,31,100,83,66,30.09,29.76,29.61,10,8,2,36,19,45,0.48,7,Rain,166
2013-2-11,46,38,30,32,25,22,78,64,49,30.14,29.95,29.72,10,10,10,31,15,44,0.00,5,,273
2013-2-12,38,32,26,28,25,22,92,78,64,30.17,30.09,29.96,10,8,5,10,5,18,0.00,0,,297
2013-2-13,50,39,28,30,27,25,92,66,39,29.95,29.85,29.78,10,8,4,20,8,25,0.00,0,,226
2013-2-14,48,40,31,32,30,27,85,69,53,30.04,29.90,29.78,10,10,10,22,11,30,0.00,3,,268
2013-2-15,36,30,23,28,20,10,82,60,38,30.25,30.17,30.05,10,10,9,20,10,26,0.00,4,,309
2013-2-16,31,24,17,14,11,7,74,57,39,30.25,30.21,30.17,10,10,9,21,11,25,0.00,1,,316
2013-2-17,38,25,12,21,14,7,80,62,44,30.25,30.17,30.00,10,10,10,17,9,23,0.00,0,,131
2013-2-18,58,44,30,48,36,21,100,80,59,29.96,29.72,29.54,10,9,2,37,23,47,0.34,5,Rain-Snow,205
2013-2-19,30,25,19,26,16,10,92,77,62,30.25,30.02,29.83,10,9,4,29,18,40,T,7,Snow,282
2013-2-20,26,18,9,16,9,3,77,66,55,30.43,30.36,30.28,10,10,9,17,9,22,0.00,2,,344
2013-2-21,32,23,14,30,23,11,92,81,69,30.37,30.09,29.85,10,4,0,32,16,38,0.00,6,Fog-Rain-Snow,93
2013-2-22,36,31,26,31,28,19,92,79,66,30.04,29.90,29.80,10,7,2,22,12,26,0.02,8,Rain-Snow,217
2013-2-23,31,25,19,20,18,16,88,76,63,30.05,30.01,29.97,10,9,6,14,6,17,0.00,3,,246
2013-2-24,38,27,16,26,21,13,92,73,54,30.17,30.12,30.04,10,8,4,9,4,17,0.00,0,,138
2013-2-25,44,34,24,33,28,21,88,75,62,30.13,30.02,29.77,10,8,4,23,12,29,0.00,1,,78
2013-2-26,35,34,33,36,33,29,100,88,75,29.73,29.50,29.40,10,4,1,32,15,39,0.99,8,Rain,40
2013-2-27,35,34,32,32,29,28,96,89,82,29.81,29.68,29.54,9,4,1,18,12,26,0.03,8,Snow,279
2013-2-28,36,34,32,33,30,28,100,88,75,30.08,29.96,29.79,10,5,2,16,11,21,0.01,8,Snow,313